sensor_id;sensor_type;location;lat;lon;timestamp;pressure;altitude;pressure_sealevel;temperature;humidity
62948;BME280;51940;52.126;-0.994;2022-11-15T00:01:09;99321.00;;;7.98;100.00
62948;BME280;51940;52.126;-0.994;2022-11-15T00:03:35;99316.45;;;7.96;100.00
62948;BME280;51940;52.126;-0.994;2022-11-15T00:06:02;99313.52;;;7.92;100.00
62948;BME280;51940;52.126;-0.994;2022-11-15T00:08:32;99313.42;;;7.90;100.00
62948;BME280;51940;52.126;-0.994;2022-11-15T00:10:59;99311.24;;;7.86;100.00
62948;BME280;51940;52.126;-0.994;2022-11-15T00:13:26;99307.22;;;7.84;100.00
62948;BME280;51940;52.126;-0.994;2022-11-15T00:15:51;99302.20;;;7.80;100.00
62948;BME280;51940;52.126;-0.994;2022-11-15T00:18:18;99301.21;;;7.77;100.00
62948;BME280;51940;52.126;-0.994;2022-11-15T00:20:43;99299.66;;;7.76;100.00
62948;BME280;51940;52.126;-0.994;2022-11-15T00:23:09;99300.40;;;7.74;100.00
62948;BME280;51940;52.126;-0.994;2022-11-15T00:25:35;99297.63;;;7.73;100.00
62948;BME280;51940;52.126;-0.994;2022-11-15T00:28:00;99296.06;;;7.72;100.00
62948;BME280;51940;52.126;-0.994;2022-11-15T00:30:27;99289.93;;;7.69;100.00
62948;BME280;51940;52.126;-0.994;2022-11-15T00:32:53;99282.41;;;7.65;100.00
62948;BME280;51940;52.126;-0.994;2022-11-15T00:35:19;99278.91;;;7.63;100.00
62948;BME280;51940;52.126;-0.994;2022-11-15T00:37:44;99270.95;;;7.63;100.00
62948;BME280;51940;52.126;-0.994;2022-11-15T00:40:12;99263.73;;;7.61;100.00
62948;BME280;51940;52.126;-0.994;2022-11-15T00:42:40;99262.85;;;7.61;100.00
62948;BME280;51940;52.126;-0.994;2022-11-15T00:45:06;99257.36;;;7.60;100.00
62948;BME280;51940;52.126;-0.994;2022-11-15T00:47:32;99254.70;;;7.59;100.00
62948;BME280;51940;52.126;-0.994;2022-11-15T00:49:58;99245.19;;;7.58;100.00
62948;BME280;51940;52.126;-0.994;2022-11-15T00:52:23;99242.36;;;7.57;100.00
62948;BME280;51940;52.126;-0.994;2022-11-15T00:54:49;99239.75;;;7.56;100.00
62948;BME280;51940;52.126;-0.994;2022-11-15T00:57:14;99234.64;;;7.55;100.00
62948;BME280;51940;52.126;-0.994;2022-11-15T00:59:39;99233.26;;;7.54;100.00
62948;BME280;51940;52.126;-0.994;2022-11-15T01:02:05;99231.48;;;7.54;100.00
62948;BME280;51940;52.126;-0.994;2022-11-15T01:04:30;99227.55;;;7.55;100.00
62948;BME280;51940;52.126;-0.994;2022-11-15T01:06:56;99220.98;;;7.55;100.00
62948;BME280;51940;52.126;-0.994;2022-11-15T01:09:21;99212.27;;;7.55;100.00
62948;BME280;51940;52.126;-0.994;2022-11-15T01:11:47;99206.98;;;7.54;100.00
62948;BME280;51940;52.126;-0.994;2022-11-15T01:14:13;99199.73;;;7.53;100.00
62948;BME280;51940;52.126;-0.994;2022-11-15T01:16:38;99197.13;;;7.52;100.00
62948;BME280;51940;52.126;-0.994;2022-11-15T01:19:04;99191.87;;;7.49;100.00
62948;BME280;51940;52.126;-0.994;2022-11-15T01:21:29;99190.36;;;7.47;100.00
62948;BME280;51940;52.126;-0.994;2022-11-15T01:23:56;99185.11;;;7.45;100.00
62948;BME280;51940;52.126;-0.994;2022-11-15T01:26:23;99180.97;;;7.41;100.00
62948;BME280;51940;52.126;-0.994;2022-11-15T01:28:49;99177.12;;;7.39;100.00
62948;BME280;51940;52.126;-0.994;2022-11-15T01:31:17;99169.52;;;7.38;100.00
62948;BME280;51940;52.126;-0.994;2022-11-15T01:33:43;99161.02;;;7.38;100.00
62948;BME280;51940;52.126;-0.994;2022-11-15T01:36:26;99152.34;;;7.38;100.00
62948;BME280;51940;52.126;-0.994;2022-11-15T01:38:56;99144.73;;;7.37;100.00
62948;BME280;51940;52.126;-0.994;2022-11-15T01:41:29;99141.02;;;7.36;100.00
62948;BME280;51940;52.126;-0.994;2022-11-15T01:46:45;99138.40;;;7.35;100.00
62948;BME280;51940;52.126;-0.994;2022-11-15T01:49:16;99135.36;;;7.35;100.00
62948;BME280;51940;52.126;-0.994;2022-11-15T01:51:43;99129.17;;;7.35;100.00
62948;BME280;51940;52.126;-0.994;2022-11-15T01:54:11;99126.34;;;7.34;100.00
62948;BME280;51940;52.126;-0.994;2022-11-15T01:56:44;99114.63;;;7.35;100.00
62948;BME280;51940;52.126;-0.994;2022-11-15T01:59:11;99110.93;;;7.33;100.00
62948;BME280;51940;52.126;-0.994;2022-11-15T02:01:37;99104.20;;;7.33;100.00
62948;BME280;51940;52.126;-0.994;2022-11-15T02:04:26;99095.70;;;7.33;100.00
62948;BME280;51940;52.126;-0.994;2022-11-15T02:06:53;99087.86;;;7.33;100.00
62948;BME280;51940;52.126;-0.994;2022-11-15T02:09:18;99082.90;;;7.33;100.00
62948;BME280;51940;52.126;-0.994;2022-11-15T02:11:44;99081.50;;;7.33;100.00
62948;BME280;51940;52.126;-0.994;2022-11-15T02:14:12;99077.83;;;7.32;100.00
62948;BME280;51940;52.126;-0.994;2022-11-15T02:32:56;99035.70;;;7.35;100.00
62948;BME280;51940;52.126;-0.994;2022-11-15T02:35:34;99031.27;;;7.35;100.00
62948;BME280;51940;52.126;-0.994;2022-11-15T02:38:31;99028.77;;;7.35;100.00
62948;BME280;51940;52.126;-0.994;2022-11-15T02:44:01;99012.18;;;7.38;100.00
62948;BME280;51940;52.126;-0.994;2022-11-15T02:46:39;99005.41;;;7.39;100.00
62948;BME280;51940;52.126;-0.994;2022-11-15T02:49:27;99003.20;;;7.41;100.00
62948;BME280;51940;52.126;-0.994;2022-11-15T02:51:54;98993.05;;;7.43;100.00
62948;BME280;51940;52.126;-0.994;2022-11-15T02:54:24;98986.08;;;7.45;100.00
62948;BME280;51940;52.126;-0.994;2022-11-15T02:56:59;98984.08;;;7.46;100.00
62948;BME280;51940;52.126;-0.994;2022-11-15T03:08:07;98966.23;;;7.58;100.00
62948;BME280;51940;52.126;-0.994;2022-11-15T03:10:45;98957.78;;;7.62;100.00
62948;BME280;51940;52.126;-0.994;2022-11-15T03:13:23;98951.77;;;7.66;100.00
62948;BME280;51940;52.126;-0.994;2022-11-15T03:18:38;98941.92;;;7.74;100.00
62948;BME280;51940;52.126;-0.994;2022-11-15T03:21:08;98937.16;;;7.78;100.00
62948;BME280;51940;52.126;-0.994;2022-11-15T03:23:39;98932.73;;;7.82;100.00
62948;BME280;51940;52.126;-0.994;2022-11-15T03:26:08;98922.14;;;7.86;100.00
62948;BME280;51940;52.126;-0.994;2022-11-15T03:28:52;98917.36;;;7.90;100.00
62948;BME280;51940;52.126;-0.994;2022-11-15T03:31:19;98920.20;;;7.95;100.00
62948;BME280;51940;52.126;-0.994;2022-11-15T03:34:10;98916.61;;;8.01;100.00
62948;BME280;51940;52.126;-0.994;2022-11-15T03:36:39;98919.83;;;8.05;100.00
62948;BME280;51940;52.126;-0.994;2022-11-15T03:39:07;98918.22;;;8.10;100.00
62948;BME280;51940;52.126;-0.994;2022-11-15T03:41:46;98912.40;;;8.14;100.00
62948;BME280;51940;52.126;-0.994;2022-11-15T03:44:51;98904.98;;;8.17;100.00
62948;BME280;51940;52.126;-0.994;2022-11-15T03:47:41;98896.11;;;8.22;100.00
62948;BME280;51940;52.126;-0.994;2022-11-15T03:50:21;98892.08;;;8.25;100.00
62948;BME280;51940;52.126;-0.994;2022-11-15T03:52:50;98893.21;;;8.28;100.00
62948;BME280;51940;52.126;-0.994;2022-11-15T03:55:19;98888.54;;;8.29;100.00
62948;BME280;51940;52.126;-0.994;2022-11-15T03:57:47;98887.40;;;8.31;100.00
62948;BME280;51940;52.126;-0.994;2022-11-15T04:00:15;98878.79;;;8.33;100.00
62948;BME280;51940;52.126;-0.994;2022-11-15T04:02:41;98874.66;;;8.34;100.00
62948;BME280;51940;52.126;-0.994;2022-11-15T04:05:07;98878.34;;;8.36;100.00
62948;BME280;51940;52.126;-0.994;2022-11-15T04:07:33;98875.63;;;8.38;100.00
62948;BME280;51940;52.126;-0.994;2022-11-15T04:09:59;98870.20;;;8.40;100.00
62948;BME280;51940;52.126;-0.994;2022-11-15T04:12:27;98859.33;;;8.41;100.00
62948;BME280;51940;52.126;-0.994;2022-11-15T04:15:16;98849.98;;;8.43;100.00
62948;BME280;51940;52.126;-0.994;2022-11-15T04:17:47;98844.75;;;8.46;100.00
62948;BME280;51940;52.126;-0.994;2022-11-15T04:20:16;98838.79;;;8.48;100.00
62948;BME280;51940;52.126;-0.994;2022-11-15T04:23:05;98837.63;;;8.51;100.00
62948;BME280;51940;52.126;-0.994;2022-11-15T04:25:52;98827.60;;;8.52;100.00
62948;BME280;51940;52.126;-0.994;2022-11-15T04:28:18;98816.48;;;8.55;100.00
62948;BME280;51940;52.126;-0.994;2022-11-15T04:30:44;98814.09;;;8.57;100.00
62948;BME280;51940;52.126;-0.994;2022-11-15T04:33:09;98808.14;;;8.59;100.00
62948;BME280;51940;52.126;-0.994;2022-11-15T04:35:34;98801.79;;;8.62;100.00
62948;BME280;51940;52.126;-0.994;2022-11-15T04:38:01;98794.77;;;8.65;100.00
62948;BME280;51940;52.126;-0.994;2022-11-15T04:40:28;98790.06;;;8.66;100.00
62948;BME280;51940;52.126;-0.994;2022-11-15T04:42:53;98782.48;;;8.69;100.00
62948;BME280;51940;52.126;-0.994;2022-11-15T04:45:19;98777.60;;;8.71;100.00
62948;BME280;51940;52.126;-0.994;2022-11-15T04:47:45;98776.59;;;8.74;100.00
62948;BME280;51940;52.126;-0.994;2022-11-15T04:50:13;98775.38;;;8.77;100.00
62948;BME280;51940;52.126;-0.994;2022-11-15T04:52:41;98774.06;;;8.79;100.00
62948;BME280;51940;52.126;-0.994;2022-11-15T04:55:08;98771.69;;;8.80;100.00
62948;BME280;51940;52.126;-0.994;2022-11-15T04:57:34;98767.67;;;8.83;100.00
62948;BME280;51940;52.126;-0.994;2022-11-15T04:59:59;98760.48;;;8.84;100.00
62948;BME280;51940;52.126;-0.994;2022-11-15T05:02:25;98754.23;;;8.85;100.00
62948;BME280;51940;52.126;-0.994;2022-11-15T05:05:10;98750.64;;;8.86;100.00
62948;BME280;51940;52.126;-0.994;2022-11-15T05:07:36;98748.10;;;8.87;100.00
62948;BME280;51940;52.126;-0.994;2022-11-15T05:10:01;98747.91;;;8.87;100.00
62948;BME280;51940;52.126;-0.994;2022-11-15T05:12:26;98742.55;;;8.88;100.00
62948;BME280;51940;52.126;-0.994;2022-11-15T05:14:52;98742.55;;;8.88;100.00
62948;BME280;51940;52.126;-0.994;2022-11-15T05:17:17;98739.33;;;8.88;100.00
62948;BME280;51940;52.126;-0.994;2022-11-15T05:19:42;98734.11;;;8.90;100.00
62948;BME280;51940;52.126;-0.994;2022-11-15T05:22:13;98731.12;;;8.89;100.00
62948;BME280;51940;52.126;-0.994;2022-11-15T05:24:38;98730.70;;;8.91;100.00
62948;BME280;51940;52.126;-0.994;2022-11-15T05:27:04;98729.21;;;8.92;100.00
62948;BME280;51940;52.126;-0.994;2022-11-15T05:29:29;98722.08;;;8.92;100.00
62948;BME280;51940;52.126;-0.994;2022-11-15T05:31:59;98719.73;;;8.93;100.00
62948;BME280;51940;52.126;-0.994;2022-11-15T05:34:24;98715.42;;;8.94;100.00
62948;BME280;51940;52.126;-0.994;2022-11-15T05:36:50;98709.19;;;8.94;100.00
62948;BME280;51940;52.126;-0.994;2022-11-15T05:39:16;98707.54;;;8.95;100.00
62948;BME280;51940;52.126;-0.994;2022-11-15T05:42:07;98701.64;;;8.96;100.00
62948;BME280;51940;52.126;-0.994;2022-11-15T05:44:36;98690.19;;;8.98;100.00
62948;BME280;51940;52.126;-0.994;2022-11-15T05:47:04;98688.70;;;8.99;100.00
62948;BME280;51940;52.126;-0.994;2022-11-15T05:49:36;98691.84;;;9.01;100.00
62948;BME280;51940;52.126;-0.994;2022-11-15T05:52:07;98683.00;;;9.03;100.00
62948;BME280;51940;52.126;-0.994;2022-11-15T05:54:37;98680.06;;;9.05;100.00
62948;BME280;51940;52.126;-0.994;2022-11-15T05:57:05;98671.15;;;9.06;100.00
62948;BME280;51940;52.126;-0.994;2022-11-15T05:59:31;98665.77;;;9.07;100.00
62948;BME280;51940;52.126;-0.994;2022-11-15T06:01:58;98659.70;;;9.08;100.00
62948;BME280;51940;52.126;-0.994;2022-11-15T06:04:24;98656.64;;;9.08;100.00
62948;BME280;51940;52.126;-0.994;2022-11-15T06:06:50;98653.96;;;9.09;100.00
62948;BME280;51940;52.126;-0.994;2022-11-15T06:09:15;98655.16;;;9.10;100.00
62948;BME280;51940;52.126;-0.994;2022-11-15T06:11:40;98646.40;;;9.11;100.00
62948;BME280;51940;52.126;-0.994;2022-11-15T06:14:06;98644.91;;;9.12;100.00
62948;BME280;51940;52.126;-0.994;2022-11-15T06:16:31;98640.23;;;9.13;100.00
62948;BME280;51940;52.126;-0.994;2022-11-15T06:18:57;98639.33;;;9.14;100.00
62948;BME280;51940;52.126;-0.994;2022-11-15T06:21:22;98635.17;;;9.15;100.00
62948;BME280;51940;52.126;-0.994;2022-11-15T06:23:48;98633.52;;;9.16;100.00
62948;BME280;51940;52.126;-0.994;2022-11-15T06:26:13;98633.48;;;9.17;100.00
62948;BME280;51940;52.126;-0.994;2022-11-15T06:28:39;98633.59;;;9.19;100.00
62948;BME280;51940;52.126;-0.994;2022-11-15T06:31:11;98632.46;;;9.20;100.00
62948;BME280;51940;52.126;-0.994;2022-11-15T06:33:37;98629.05;;;9.20;100.00
62948;BME280;51940;52.126;-0.994;2022-11-15T06:36:05;98625.62;;;9.21;100.00
62948;BME280;51940;52.126;-0.994;2022-11-15T06:38:31;98623.10;;;9.22;100.00
62948;BME280;51940;52.126;-0.994;2022-11-15T06:41:02;98617.90;;;9.23;100.00
62948;BME280;51940;52.126;-0.994;2022-11-15T06:43:27;98615.16;;;9.24;100.00
62948;BME280;51940;52.126;-0.994;2022-11-15T06:45:53;98611.20;;;9.25;100.00
62948;BME280;51940;52.126;-0.994;2022-11-15T06:48:18;98600.30;;;9.26;100.00
62948;BME280;51940;52.126;-0.994;2022-11-15T06:50:53;98603.81;;;9.28;100.00
62948;BME280;51940;52.126;-0.994;2022-11-15T06:53:20;98603.93;;;9.28;100.00
62948;BME280;51940;52.126;-0.994;2022-11-15T06:55:45;98595.36;;;9.29;100.00
62948;BME280;51940;52.126;-0.994;2022-11-15T06:58:11;98594.27;;;9.30;100.00
62948;BME280;51940;52.126;-0.994;2022-11-15T07:00:36;98592.06;;;9.31;100.00
62948;BME280;51940;52.126;-0.994;2022-11-15T07:03:02;98586.13;;;9.32;100.00
62948;BME280;51940;52.126;-0.994;2022-11-15T07:05:28;98580.05;;;9.33;100.00
62948;BME280;51940;52.126;-0.994;2022-11-15T07:07:54;98579.98;;;9.35;100.00
62948;BME280;51940;52.126;-0.994;2022-11-15T07:10:23;98580.59;;;9.37;100.00
62948;BME280;51940;52.126;-0.994;2022-11-15T07:12:55;98575.69;;;9.39;100.00
62948;BME280;51940;52.126;-0.994;2022-11-15T07:15:23;98571.73;;;9.40;100.00
62948;BME280;51940;52.126;-0.994;2022-11-15T07:17:49;98568.48;;;9.41;100.00
62948;BME280;51940;52.126;-0.994;2022-11-15T07:20:15;98562.89;;;9.42;100.00
62948;BME280;51940;52.126;-0.994;2022-11-15T07:22:41;98557.52;;;9.43;100.00
62948;BME280;51940;52.126;-0.994;2022-11-15T07:25:07;98551.02;;;9.44;100.00
62948;BME280;51940;52.126;-0.994;2022-11-15T07:27:33;98550.77;;;9.46;100.00
62948;BME280;51940;52.126;-0.994;2022-11-15T07:29:59;98545.56;;;9.47;100.00
62948;BME280;51940;52.126;-0.994;2022-11-15T07:32:24;98542.83;;;9.48;100.00
62948;BME280;51940;52.126;-0.994;2022-11-15T07:34:50;98542.04;;;9.50;100.00
62948;BME280;51940;52.126;-0.994;2022-11-15T07:37:15;98544.08;;;9.52;100.00
62948;BME280;51940;52.126;-0.994;2022-11-15T07:39:42;98545.94;;;9.54;100.00
62948;BME280;51940;52.126;-0.994;2022-11-15T07:42:08;98544.58;;;9.56;100.00
62948;BME280;51940;52.126;-0.994;2022-11-15T07:44:52;98541.48;;;9.58;100.00
62948;BME280;51940;52.126;-0.994;2022-11-15T07:47:17;98542.09;;;9.60;100.00
62948;BME280;51940;52.126;-0.994;2022-11-15T07:49:43;98537.89;;;9.62;100.00
62948;BME280;51940;52.126;-0.994;2022-11-15T07:52:09;98535.27;;;9.64;100.00
62948;BME280;51940;52.126;-0.994;2022-11-15T07:54:37;98527.05;;;9.66;100.00
62948;BME280;51940;52.126;-0.994;2022-11-15T07:57:03;98524.67;;;9.67;100.00
62948;BME280;51940;52.126;-0.994;2022-11-15T07:59:29;98522.45;;;9.68;100.00
62948;BME280;51940;52.126;-0.994;2022-11-15T08:01:58;98523.45;;;9.70;100.00
62948;BME280;51940;52.126;-0.994;2022-11-15T08:04:24;98518.05;;;9.71;100.00
62948;BME280;51940;52.126;-0.994;2022-11-15T08:06:49;98516.41;;;9.71;100.00
62948;BME280;51940;52.126;-0.994;2022-11-15T08:09:15;98511.21;;;9.72;100.00
62948;BME280;51940;52.126;-0.994;2022-11-15T08:11:40;98503.69;;;9.73;100.00
62948;BME280;51940;52.126;-0.994;2022-11-15T08:14:05;98502.04;;;9.74;100.00
62948;BME280;51940;52.126;-0.994;2022-11-15T08:16:31;98498.29;;;9.74;100.00
62948;BME280;51940;52.126;-0.994;2022-11-15T08:18:57;98497.56;;;9.75;100.00
62948;BME280;51940;52.126;-0.994;2022-11-15T08:21:22;98491.62;;;9.76;100.00
62948;BME280;51940;52.126;-0.994;2022-11-15T08:23:48;98486.94;;;9.77;100.00
62948;BME280;51940;52.126;-0.994;2022-11-15T08:26:15;98481.73;;;9.78;100.00
62948;BME280;51940;52.126;-0.994;2022-11-15T08:28:41;98477.23;;;9.79;100.00
62948;BME280;51940;52.126;-0.994;2022-11-15T08:31:06;98473.43;;;9.80;100.00
62948;BME280;51940;52.126;-0.994;2022-11-15T08:33:35;98472.64;;;9.81;100.00
62948;BME280;51940;52.126;-0.994;2022-11-15T08:36:01;98468.65;;;9.82;100.00
62948;BME280;51940;52.126;-0.994;2022-11-15T08:38:27;98471.45;;;9.84;100.00
62948;BME280;51940;52.126;-0.994;2022-11-15T08:41:02;98467.09;;;9.85;100.00
62948;BME280;51940;52.126;-0.994;2022-11-15T08:43:28;98463.25;;;9.87;100.00
62948;BME280;51940;52.126;-0.994;2022-11-15T08:45:57;98457.23;;;9.89;100.00
62948;BME280;51940;52.126;-0.994;2022-11-15T08:48:25;98453.55;;;9.92;100.00
62948;BME280;51940;52.126;-0.994;2022-11-15T08:50:55;98447.91;;;9.94;100.00
62948;BME280;51940;52.126;-0.994;2022-11-15T08:53:21;98442.67;;;9.96;100.00
62948;BME280;51940;52.126;-0.994;2022-11-15T08:55:47;98435.81;;;9.97;100.00
62948;BME280;51940;52.126;-0.994;2022-11-15T08:58:13;98430.26;;;9.98;100.00
62948;BME280;51940;52.126;-0.994;2022-11-15T09:00:38;98430.04;;;9.99;100.00
62948;BME280;51940;52.126;-0.994;2022-11-15T09:03:05;98429.13;;;9.99;100.00
62948;BME280;51940;52.126;-0.994;2022-11-15T09:05:31;98423.38;;;10.01;100.00
62948;BME280;51940;52.126;-0.994;2022-11-15T09:07:56;98412.09;;;10.02;100.00
62948;BME280;51940;52.126;-0.994;2022-11-15T09:10:22;98409.48;;;10.04;100.00
62948;BME280;51940;52.126;-0.994;2022-11-15T09:12:47;98407.76;;;10.06;100.00
62948;BME280;51940;52.126;-0.994;2022-11-15T09:15:14;98400.56;;;10.07;100.00
62948;BME280;51940;52.126;-0.994;2022-11-15T09:17:41;98397.22;;;10.10;100.00
62948;BME280;51940;52.126;-0.994;2022-11-15T09:20:07;98392.98;;;10.12;100.00
62948;BME280;51940;52.126;-0.994;2022-11-15T09:22:34;98387.84;;;10.15;100.00
62948;BME280;51940;52.126;-0.994;2022-11-15T09:25:02;98382.39;;;10.17;100.00
62948;BME280;51940;52.126;-0.994;2022-11-15T09:27:29;98380.84;;;10.20;100.00
62948;BME280;51940;52.126;-0.994;2022-11-15T09:29:56;98376.63;;;10.22;100.00
62948;BME280;51940;52.126;-0.994;2022-11-15T09:32:21;98374.20;;;10.24;100.00
62948;BME280;51940;52.126;-0.994;2022-11-15T09:34:50;98377.82;;;10.27;100.00
62948;BME280;51940;52.126;-0.994;2022-11-15T09:37:16;98373.05;;;10.29;100.00
62948;BME280;51940;52.126;-0.994;2022-11-15T09:39:41;98370.77;;;10.31;100.00
62948;BME280;51940;52.126;-0.994;2022-11-15T09:46:11;98354.41;;;10.34;100.00
62948;BME280;51940;52.126;-0.994;2022-11-15T09:50:49;98347.70;;;10.36;100.00
62948;BME280;51940;52.126;-0.994;2022-11-15T09:53:36;98339.48;;;10.37;100.00
62948;BME280;51940;52.126;-0.994;2022-11-15T09:56:22;98342.23;;;10.38;100.00
62948;BME280;51940;52.126;-0.994;2022-11-15T10:01:49;98335.18;;;10.40;100.00
62948;BME280;51940;52.126;-0.994;2022-11-15T10:04:21;98329.21;;;10.41;100.00
62948;BME280;51940;52.126;-0.994;2022-11-15T10:06:55;98325.89;;;10.44;100.00
62948;BME280;51940;52.126;-0.994;2022-11-15T10:09:27;98323.60;;;10.46;100.00
62948;BME280;51940;52.126;-0.994;2022-11-15T10:11:56;98325.59;;;10.49;100.00
62948;BME280;51940;52.126;-0.994;2022-11-15T10:14:24;98321.73;;;10.51;100.00
62948;BME280;51940;52.126;-0.994;2022-11-15T10:22:29;98310.83;;;10.61;100.00
62948;BME280;51940;52.126;-0.994;2022-11-15T10:25:24;98313.27;;;10.64;100.00
62948;BME280;51940;52.126;-0.994;2022-11-15T10:27:59;98309.48;;;10.69;100.00
62948;BME280;51940;52.126;-0.994;2022-11-15T10:30:46;98309.80;;;10.72;100.00
62948;BME280;51940;52.126;-0.994;2022-11-15T10:41:16;98281.96;;;10.79;100.00
62948;BME280;51940;52.126;-0.994;2022-11-15T10:43:42;98278.77;;;10.79;100.00
62948;BME280;51940;52.126;-0.994;2022-11-15T10:46:26;98268.66;;;10.78;100.00
62948;BME280;51940;52.126;-0.994;2022-11-15T10:48:52;98265.48;;;10.78;100.00
62948;BME280;51940;52.126;-0.994;2022-11-15T10:51:21;98257.13;;;10.77;100.00
62948;BME280;51940;52.126;-0.994;2022-11-15T10:53:48;98243.67;;;10.75;100.00
62948;BME280;51940;52.126;-0.994;2022-11-15T10:56:14;98234.46;;;10.74;100.00
62948;BME280;51940;52.126;-0.994;2022-11-15T10:58:50;98226.63;;;10.73;100.00
62948;BME280;51940;52.126;-0.994;2022-11-15T11:03:45;98219.90;;;10.73;100.00
62948;BME280;51940;52.126;-0.994;2022-11-15T11:06:23;98212.78;;;10.73;100.00
62948;BME280;51940;52.126;-0.994;2022-11-15T11:09:04;98206.73;;;10.72;100.00
62948;BME280;51940;52.126;-0.994;2022-11-15T11:11:48;98192.24;;;10.73;100.00
62948;BME280;51940;52.126;-0.994;2022-11-15T11:16:55;98187.69;;;10.74;100.00
62948;BME280;51940;52.126;-0.994;2022-11-15T11:28:11;98163.38;;;10.79;100.00
62948;BME280;51940;52.126;-0.994;2022-11-15T11:33:32;98154.09;;;10.82;100.00
62948;BME280;51940;52.126;-0.994;2022-11-15T11:36:18;98142.76;;;10.84;100.00
62948;BME280;51940;52.126;-0.994;2022-11-15T11:44:34;98127.23;;;10.90;100.00
62948;BME280;51940;52.126;-0.994;2022-11-15T11:47:15;98124.14;;;10.91;100.00
62948;BME280;51940;52.126;-0.994;2022-11-15T11:49:51;98120.54;;;10.91;100.00
62948;BME280;51940;52.126;-0.994;2022-11-15T11:52:33;98120.71;;;10.91;100.00
62948;BME280;51940;52.126;-0.994;2022-11-15T11:55:19;98118.05;;;10.91;100.00
62948;BME280;51940;52.126;-0.994;2022-11-15T12:00:25;98115.17;;;10.91;100.00
62948;BME280;51940;52.126;-0.994;2022-11-15T12:06:05;98104.48;;;10.95;100.00
62948;BME280;51940;52.126;-0.994;2022-11-15T12:08:46;98095.09;;;10.96;100.00
62948;BME280;51940;52.126;-0.994;2022-11-15T12:13:43;98086.58;;;11.01;100.00
62948;BME280;51940;52.126;-0.994;2022-11-15T12:16:16;98078.42;;;11.03;100.00
62948;BME280;51940;52.126;-0.994;2022-11-15T12:18:50;98070.90;;;11.07;100.00
62948;BME280;51940;52.126;-0.994;2022-11-15T12:21:39;98063.17;;;11.10;100.00
62948;BME280;51940;52.126;-0.994;2022-11-15T12:24:20;98055.71;;;11.15;100.00
62948;BME280;51940;52.126;-0.994;2022-11-15T12:27:18;98049.06;;;11.18;100.00
62948;BME280;51940;52.126;-0.994;2022-11-15T12:29:52;98042.45;;;11.22;100.00
62948;BME280;51940;52.126;-0.994;2022-11-15T12:32:29;98044.82;;;11.23;100.00
62948;BME280;51940;52.126;-0.994;2022-11-15T12:34:56;98034.78;;;11.24;100.00
62948;BME280;51940;52.126;-0.994;2022-11-15T12:40:21;98031.73;;;11.24;100.00
62948;BME280;51940;52.126;-0.994;2022-11-15T12:42:57;98031.95;;;11.24;100.00
62948;BME280;51940;52.126;-0.994;2022-11-15T12:45:32;98036.61;;;11.23;100.00
62948;BME280;51940;52.126;-0.994;2022-11-15T13:11:59;98019.37;;;11.58;100.00
62948;BME280;51940;52.126;-0.994;2022-11-15T13:14:44;98013.64;;;11.69;100.00
62948;BME280;51940;52.126;-0.994;2022-11-15T13:22:17;98019.41;;;12.08;100.00
62948;BME280;51940;52.126;-0.994;2022-11-15T13:25:02;98016.84;;;12.25;100.00
62948;BME280;51940;52.126;-0.994;2022-11-15T13:27:29;98015.48;;;12.36;100.00
62948;BME280;51940;52.126;-0.994;2022-11-15T13:29:55;98012.92;;;12.48;100.00
62948;BME280;51940;52.126;-0.994;2022-11-15T13:32:21;98005.55;;;12.61;100.00
62948;BME280;51940;52.126;-0.994;2022-11-15T13:34:49;98010.45;;;12.72;100.00
62948;BME280;51940;52.126;-0.994;2022-11-15T13:39:47;97998.52;;;12.87;100.00
62948;BME280;51940;52.126;-0.994;2022-11-15T13:42:15;97997.45;;;12.89;100.00
62948;BME280;51940;52.126;-0.994;2022-11-15T13:44:55;97998.20;;;12.86;100.00
62948;BME280;51940;52.126;-0.994;2022-11-15T13:47:21;98000.11;;;12.79;100.00
62948;BME280;51940;52.126;-0.994;2022-11-15T13:49:46;98008.98;;;12.73;100.00
62948;BME280;51940;52.126;-0.994;2022-11-15T13:52:15;98007.90;;;12.65;100.00
62948;BME280;51940;52.126;-0.994;2022-11-15T13:54:54;98011.19;;;12.60;100.00
62948;BME280;51940;52.126;-0.994;2022-11-15T13:57:38;98017.75;;;12.55;100.00
62948;BME280;51940;52.126;-0.994;2022-11-15T14:02:48;98018.55;;;12.47;100.00
62948;BME280;51940;52.126;-0.994;2022-11-15T14:05:22;98020.02;;;12.43;100.00
62948;BME280;51940;52.126;-0.994;2022-11-15T14:08:03;98021.26;;;12.41;100.00
62948;BME280;51940;52.126;-0.994;2022-11-15T14:10:35;98020.70;;;12.41;100.00
62948;BME280;51940;52.126;-0.994;2022-11-15T14:13:02;98025.16;;;12.44;100.00
62948;BME280;51940;52.126;-0.994;2022-11-15T14:15:31;98028.09;;;12.46;100.00
62948;BME280;51940;52.126;-0.994;2022-11-15T14:17:58;98030.02;;;12.43;100.00
62948;BME280;51940;52.126;-0.994;2022-11-15T14:22:57;98037.89;;;12.35;100.00
62948;BME280;51940;52.126;-0.994;2022-11-15T14:25:33;98045.81;;;12.29;100.00
62948;BME280;51940;52.126;-0.994;2022-11-15T14:28:29;98044.77;;;12.24;100.00
62948;BME280;51940;52.126;-0.994;2022-11-15T14:30:58;98050.66;;;12.22;100.00
62948;BME280;51940;52.126;-0.994;2022-11-15T14:33:34;98052.45;;;12.16;100.00
62948;BME280;51940;52.126;-0.994;2022-11-15T14:36:18;98053.61;;;12.12;100.00
62948;BME280;51940;52.126;-0.994;2022-11-15T14:38:45;98058.34;;;12.11;100.00
62948;BME280;51940;52.126;-0.994;2022-11-15T14:41:24;98060.36;;;12.10;100.00
62948;BME280;51940;52.126;-0.994;2022-11-15T14:43:53;98052.13;;;12.05;100.00
62948;BME280;51940;52.126;-0.994;2022-11-15T14:46:19;98057.04;;;11.99;100.00
62948;BME280;51940;52.126;-0.994;2022-11-15T14:48:45;98060.73;;;11.92;100.00
62948;BME280;51940;52.126;-0.994;2022-11-15T14:51:16;98064.55;;;11.85;100.00
62948;BME280;51940;52.126;-0.994;2022-11-15T14:53:43;98064.10;;;11.78;100.00
62948;BME280;51940;52.126;-0.994;2022-11-15T14:56:10;98066.59;;;11.70;100.00
62948;BME280;51940;52.126;-0.994;2022-11-15T14:58:39;98064.30;;;11.61;100.00
62948;BME280;51940;52.126;-0.994;2022-11-15T15:01:19;98070.61;;;11.52;100.00
62948;BME280;51940;52.126;-0.994;2022-11-15T15:03:45;98072.46;;;11.43;100.00
62948;BME280;51940;52.126;-0.994;2022-11-15T15:06:11;98076.15;;;11.33;100.00